This is the latest recevied weather packets stored in our database for station/object SQ9PDE-13. If no packets are shown the sender has not sent any weather packets the latest 10 day(s).
| Time | Temp. | Humidity | Pressure | Rain* | Wind** | Luminosity | Snow |
|---|---|---|---|---|---|---|---|
| 1788086466 | 25.56° C | 44% | 1016.7 hPa | - | - | - | - |
| 1788086165 | 26.67° C | 45% | 1016.4 hPa | - | - | - | - |
| 1788085865 | 26.67° C | 43% | 1016.4 hPa | - | - | - | - |
| 1788085564 | 28.33° C | 41% | 1016.2 hPa | - | - | - | - |
| 1788085264 | 27.78° C | 40% | 1016.4 hPa | - | - | - | - |
| 1788084963 | 27.78° C | 40% | 1016.4 hPa | - | - | - | - |
| 1788084663 | 27.78° C | 40% | 1016.4 hPa | - | - | - | - |
| 1788084362 | 28.89° C | 39% | 1016.3 hPa | - | - | - | - |
| 1788084062 | 28.33° C | 40% | 1016.4 hPa | - | - | - | - |
| 1788083761 | 28.33° C | 40% | 1016.4 hPa | - | - | - | - |
| 1788083461 | 27.78° C | 41% | 1016.6 hPa | - | - | - | - |
| 1788083160 | 27.78° C | 41% | 1016.6 hPa | - | - | - | - |
| 1788082860 | 28.89° C | 42% | 1016.6 hPa | - | - | - | - |
| 1788082559 | 27.22° C | 43% | 1016.8 hPa | - | - | - | - |
| 1788082259 | 28.33° C | 41% | 1016.7 hPa | - | - | - | - |
| 1788081958 | 28.89° C | 43% | 1016.6 hPa | - | - | - | - |
| 1788081658 | 29.44° C | 43% | 1016.5 hPa | - | - | - | - |
| 1788081357 | 28.33° C | 44% | 1016.8 hPa | - | - | - | - |
| 1788081277 | 28.33° C | 45% | 1016.7 hPa | - | - | - | - |
| 1788080977 | 27.22° C | 45% | 1016.9 hPa | - | - | - | - |
| 1788080676 | 27.78° C | 43% | 1016.8 hPa | - | - | - | - |
| 1788080376 | 28.89° C | 45% | 1016.7 hPa | - | - | - | - |
| 1788080075 | 27.22° C | 44% | 1016.9 hPa | - | - | - | - |
| 1788079775 | 27.22° C | 46% | 1017.2 hPa | - | - | - | - |
| 1788079474 | 26.67° C | 47% | 1017.2 hPa | - | - | - | - |
* Rain since midnight (hover to see other rain measurements)
** Current wind speed in m/s (hover to see current wind gust speed)